sensor_id;sensor_type;location;lat;lon;timestamp;temperature;humidity
55436;DHT22;41307;53.142;6.430;2022-08-03T00:01:39;19.30;99.90
55436;DHT22;41307;53.142;6.430;2022-08-03T00:04:06;19.30;99.90
55436;DHT22;41307;53.142;6.430;2022-08-03T00:06:33;19.30;99.90
55436;DHT22;41307;53.142;6.430;2022-08-03T00:08:59;19.20;99.90
55436;DHT22;41307;53.142;6.430;2022-08-03T00:11:25;19.20;99.90
55436;DHT22;41307;53.142;6.430;2022-08-03T00:13:51;19.20;99.90
55436;DHT22;41307;53.142;6.430;2022-08-03T00:16:17;19.20;99.90
55436;DHT22;41307;53.142;6.430;2022-08-03T00:18:43;19.20;99.90
55436;DHT22;41307;53.142;6.430;2022-08-03T00:21:09;19.10;99.90
55436;DHT22;41307;53.142;6.430;2022-08-03T00:23:35;19.10;99.90
55436;DHT22;41307;53.142;6.430;2022-08-03T00:26:01;19.10;99.90
55436;DHT22;41307;53.142;6.430;2022-08-03T00:28:27;19.00;99.90
55436;DHT22;41307;53.142;6.430;2022-08-03T00:30:53;19.00;99.90
55436;DHT22;41307;53.142;6.430;2022-08-03T00:33:20;19.00;99.90
55436;DHT22;41307;53.142;6.430;2022-08-03T00:35:46;19.00;99.90
55436;DHT22;41307;53.142;6.430;2022-08-03T00:38:12;19.00;99.90
55436;DHT22;41307;53.142;6.430;2022-08-03T00:40:38;19.00;99.90
55436;DHT22;41307;53.142;6.430;2022-08-03T00:43:05;19.00;99.90
55436;DHT22;41307;53.142;6.430;2022-08-03T00:45:34;19.00;99.90
55436;DHT22;41307;53.142;6.430;2022-08-03T00:48:00;18.90;99.90
55436;DHT22;41307;53.142;6.430;2022-08-03T00:50:28;18.90;99.90
55436;DHT22;41307;53.142;6.430;2022-08-03T00:52:56;18.90;99.90
55436;DHT22;41307;53.142;6.430;2022-08-03T00:55:22;18.80;99.90
55436;DHT22;41307;53.142;6.430;2022-08-03T00:57:48;18.80;99.90
55436;DHT22;41307;53.142;6.430;2022-08-03T01:00:18;18.80;99.90
55436;DHT22;41307;53.142;6.430;2022-08-03T01:02:44;18.80;99.90
55436;DHT22;41307;53.142;6.430;2022-08-03T01:05:10;18.80;99.90
55436;DHT22;41307;53.142;6.430;2022-08-03T01:08:11;18.80;99.90
55436;DHT22;41307;53.142;6.430;2022-08-03T01:16:05;18.70;99.90
55436;DHT22;41307;53.142;6.430;2022-08-03T01:18:40;18.70;99.90
55436;DHT22;41307;53.142;6.430;2022-08-03T01:21:20;18.70;99.90
55436;DHT22;41307;53.142;6.430;2022-08-03T01:27:10;18.70;99.90
55436;DHT22;41307;53.142;6.430;2022-08-03T01:30:05;18.70;99.90
55436;DHT22;41307;53.142;6.430;2022-08-03T01:32:47;18.70;99.90
55436;DHT22;41307;53.142;6.430;2022-08-03T01:35:27;18.70;99.90
55436;DHT22;41307;53.142;6.430;2022-08-03T01:38:05;18.70;99.90
55436;DHT22;41307;53.142;6.430;2022-08-03T01:40:33;18.70;99.90
55436;DHT22;41307;53.142;6.430;2022-08-03T01:43:02;18.70;99.90
55436;DHT22;41307;53.142;6.430;2022-08-03T01:45:29;18.70;99.90
55436;DHT22;41307;53.142;6.430;2022-08-03T01:47:56;18.70;99.90
55436;DHT22;41307;53.142;6.430;2022-08-03T01:50:26;18.70;99.90
55436;DHT22;41307;53.142;6.430;2022-08-03T01:52:54;18.70;99.90
55436;DHT22;41307;53.142;6.430;2022-08-03T01:55:21;18.60;99.90
55436;DHT22;41307;53.142;6.430;2022-08-03T01:57:49;18.60;99.90
55436;DHT22;41307;53.142;6.430;2022-08-03T02:00:16;18.60;99.90
55436;DHT22;41307;53.142;6.430;2022-08-03T02:02:46;18.60;99.90
55436;DHT22;41307;53.142;6.430;2022-08-03T02:05:14;18.50;99.90
55436;DHT22;41307;53.142;6.430;2022-08-03T02:07:41;18.50;99.90
55436;DHT22;41307;53.142;6.430;2022-08-03T02:10:09;18.50;99.90
55436;DHT22;41307;53.142;6.430;2022-08-03T02:12:37;18.60;99.90
55436;DHT22;41307;53.142;6.430;2022-08-03T02:15:04;18.50;99.90
55436;DHT22;41307;53.142;6.430;2022-08-03T02:17:32;18.50;99.90
55436;DHT22;41307;53.142;6.430;2022-08-03T02:19:59;18.50;99.90
55436;DHT22;41307;53.142;6.430;2022-08-03T02:22:26;18.50;99.90
55436;DHT22;41307;53.142;6.430;2022-08-03T02:24:52;18.50;99.90
55436;DHT22;41307;53.142;6.430;2022-08-03T02:27:26;18.50;99.90
55436;DHT22;41307;53.142;6.430;2022-08-03T02:29:55;18.40;99.90
55436;DHT22;41307;53.142;6.430;2022-08-03T02:32:36;18.40;99.90
55436;DHT22;41307;53.142;6.430;2022-08-03T02:35:05;18.40;99.90
55436;DHT22;41307;53.142;6.430;2022-08-03T02:37:33;18.40;99.90
55436;DHT22;41307;53.142;6.430;2022-08-03T02:40:05;18.40;99.90
55436;DHT22;41307;53.142;6.430;2022-08-03T02:42:33;18.30;99.90
55436;DHT22;41307;53.142;6.430;2022-08-03T02:45:02;18.30;99.90
55436;DHT22;41307;53.142;6.430;2022-08-03T02:47:31;18.30;99.90
55436;DHT22;41307;53.142;6.430;2022-08-03T02:49:59;18.30;99.90
55436;DHT22;41307;53.142;6.430;2022-08-03T02:52:27;18.20;99.90
55436;DHT22;41307;53.142;6.430;2022-08-03T02:54:58;18.20;99.90
55436;DHT22;41307;53.142;6.430;2022-08-03T02:57:26;18.30;99.90
55436;DHT22;41307;53.142;6.430;2022-08-03T02:59:54;18.20;99.90
55436;DHT22;41307;53.142;6.430;2022-08-03T03:02:21;18.20;99.90
55436;DHT22;41307;53.142;6.430;2022-08-03T03:04:49;18.20;99.90
55436;DHT22;41307;53.142;6.430;2022-08-03T03:07:17;18.20;99.90
55436;DHT22;41307;53.142;6.430;2022-08-03T03:09:43;18.20;99.90
55436;DHT22;41307;53.142;6.430;2022-08-03T03:12:11;18.20;99.90
55436;DHT22;41307;53.142;6.430;2022-08-03T03:14:38;18.20;99.90
55436;DHT22;41307;53.142;6.430;2022-08-03T03:17:06;18.10;99.90
55436;DHT22;41307;53.142;6.430;2022-08-03T03:19:33;17.80;99.90
55436;DHT22;41307;53.142;6.430;2022-08-03T03:22:00;18.10;99.90
55436;DHT22;41307;53.142;6.430;2022-08-03T03:24:28;18.40;99.90
55436;DHT22;41307;53.142;6.430;2022-08-03T03:26:55;18.10;99.90
55436;DHT22;41307;53.142;6.430;2022-08-03T03:29:21;18.10;99.90
55436;DHT22;41307;53.142;6.430;2022-08-03T03:31:48;18.10;99.90
55436;DHT22;41307;53.142;6.430;2022-08-03T03:34:14;18.10;99.90
55436;DHT22;41307;53.142;6.430;2022-08-03T03:36:40;18.00;99.90
55436;DHT22;41307;53.142;6.430;2022-08-03T03:39:06;18.00;99.90
55436;DHT22;41307;53.142;6.430;2022-08-03T03:41:32;18.10;99.90
55436;DHT22;41307;53.142;6.430;2022-08-03T03:43:59;18.00;99.90
55436;DHT22;41307;53.142;6.430;2022-08-03T03:46:25;18.00;99.90
55436;DHT22;41307;53.142;6.430;2022-08-03T03:48:51;18.00;99.90
55436;DHT22;41307;53.142;6.430;2022-08-03T03:51:17;18.00;99.90
55436;DHT22;41307;53.142;6.430;2022-08-03T03:53:57;18.00;99.90
55436;DHT22;41307;53.142;6.430;2022-08-03T03:56:23;18.00;99.90
55436;DHT22;41307;53.142;6.430;2022-08-03T03:58:49;18.00;99.90
55436;DHT22;41307;53.142;6.430;2022-08-03T04:01:15;17.90;99.90
55436;DHT22;41307;53.142;6.430;2022-08-03T04:03:41;17.90;99.90
55436;DHT22;41307;53.142;6.430;2022-08-03T04:06:07;17.90;99.90
55436;DHT22;41307;53.142;6.430;2022-08-03T04:08:51;18.00;99.90
55436;DHT22;41307;53.142;6.430;2022-08-03T04:11:39;17.90;99.90
55436;DHT22;41307;53.142;6.430;2022-08-03T04:14:14;18.00;99.90
55436;DHT22;41307;53.142;6.430;2022-08-03T04:16:45;18.00;99.90
55436;DHT22;41307;53.142;6.430;2022-08-03T04:19:16;17.90;99.90
55436;DHT22;41307;53.142;6.430;2022-08-03T04:21:43;17.90;99.90
55436;DHT22;41307;53.142;6.430;2022-08-03T04:24:10;17.90;99.90
55436;DHT22;41307;53.142;6.430;2022-08-03T04:26:39;17.90;99.90
55436;DHT22;41307;53.142;6.430;2022-08-03T04:29:07;18.00;99.90
55436;DHT22;41307;53.142;6.430;2022-08-03T04:31:34;17.90;99.90
55436;DHT22;41307;53.142;6.430;2022-08-03T04:34:01;18.00;99.90
55436;DHT22;41307;53.142;6.430;2022-08-03T04:36:31;18.00;99.90
55436;DHT22;41307;53.142;6.430;2022-08-03T04:39:07;18.00;99.90
55436;DHT22;41307;53.142;6.430;2022-08-03T04:41:35;18.00;99.90
55436;DHT22;41307;53.142;6.430;2022-08-03T04:44:01;18.00;99.90
55436;DHT22;41307;53.142;6.430;2022-08-03T04:46:31;18.10;99.90
55436;DHT22;41307;53.142;6.430;2022-08-03T04:48:59;18.10;99.90
55436;DHT22;41307;53.142;6.430;2022-08-03T04:51:25;18.20;99.90
55436;DHT22;41307;53.142;6.430;2022-08-03T04:53:51;18.20;99.90
55436;DHT22;41307;53.142;6.430;2022-08-03T04:56:17;18.30;99.90
55436;DHT22;41307;53.142;6.430;2022-08-03T04:58:43;18.30;99.90
55436;DHT22;41307;53.142;6.430;2022-08-03T05:01:09;18.30;99.90
55436;DHT22;41307;53.142;6.430;2022-08-03T05:03:35;18.40;99.90
55436;DHT22;41307;53.142;6.430;2022-08-03T05:06:01;18.50;99.90
55436;DHT22;41307;53.142;6.430;2022-08-03T05:08:27;18.50;99.90
55436;DHT22;41307;53.142;6.430;2022-08-03T05:10:53;18.50;99.90
55436;DHT22;41307;53.142;6.430;2022-08-03T05:13:19;18.50;99.90
55436;DHT22;41307;53.142;6.430;2022-08-03T05:15:45;18.60;99.90
55436;DHT22;41307;53.142;6.430;2022-08-03T05:18:10;18.60;99.90
55436;DHT22;41307;53.142;6.430;2022-08-03T05:20:36;18.70;99.90
55436;DHT22;41307;53.142;6.430;2022-08-03T05:23:02;18.70;99.90
55436;DHT22;41307;53.142;6.430;2022-08-03T05:25:29;18.80;99.90
55436;DHT22;41307;53.142;6.430;2022-08-03T05:27:54;18.90;99.90
55436;DHT22;41307;53.142;6.430;2022-08-03T05:30:21;19.00;99.90
55436;DHT22;41307;53.142;6.430;2022-08-03T05:32:46;19.20;99.90
55436;DHT22;41307;53.142;6.430;2022-08-03T05:35:15;19.80;99.90
55436;DHT22;41307;53.142;6.430;2022-08-03T05:37:40;20.50;99.90
55436;DHT22;41307;53.142;6.430;2022-08-03T05:40:07;21.00;99.90
55436;DHT22;41307;53.142;6.430;2022-08-03T05:42:33;21.10;99.90
55436;DHT22;41307;53.142;6.430;2022-08-03T05:45:05;21.60;99.90
55436;DHT22;41307;53.142;6.430;2022-08-03T05:47:42;22.20;99.90
55436;DHT22;41307;53.142;6.430;2022-08-03T05:50:10;23.10;99.90
55436;DHT22;41307;53.142;6.430;2022-08-03T05:52:37;23.80;99.90
55436;DHT22;41307;53.142;6.430;2022-08-03T05:55:06;24.30;99.90
55436;DHT22;41307;53.142;6.430;2022-08-03T05:57:32;24.60;99.90
55436;DHT22;41307;53.142;6.430;2022-08-03T05:59:58;25.00;99.90
55436;DHT22;41307;53.142;6.430;2022-08-03T06:02:25;25.30;99.90
55436;DHT22;41307;53.142;6.430;2022-08-03T06:04:51;25.60;99.90
55436;DHT22;41307;53.142;6.430;2022-08-03T06:07:17;25.80;99.90
55436;DHT22;41307;53.142;6.430;2022-08-03T06:09:43;26.20;99.90
55436;DHT22;41307;53.142;6.430;2022-08-03T06:12:08;26.30;99.90
55436;DHT22;41307;53.142;6.430;2022-08-03T06:14:34;26.40;99.90
55436;DHT22;41307;53.142;6.430;2022-08-03T06:17:00;26.30;99.90
55436;DHT22;41307;53.142;6.430;2022-08-03T06:19:25;26.60;99.90
55436;DHT22;41307;53.142;6.430;2022-08-03T06:21:52;27.00;99.90
55436;DHT22;41307;53.142;6.430;2022-08-03T06:24:17;27.40;99.90
55436;DHT22;41307;53.142;6.430;2022-08-03T06:26:43;27.70;99.90
55436;DHT22;41307;53.142;6.430;2022-08-03T06:29:09;27.70;99.90
55436;DHT22;41307;53.142;6.430;2022-08-03T06:31:35;27.80;99.90
55436;DHT22;41307;53.142;6.430;2022-08-03T06:34:02;27.80;99.90
55436;DHT22;41307;53.142;6.430;2022-08-03T06:36:28;28.00;99.90
55436;DHT22;41307;53.142;6.430;2022-08-03T06:38:56;27.00;99.90
55436;DHT22;41307;53.142;6.430;2022-08-03T06:41:23;27.00;99.90
55436;DHT22;41307;53.142;6.430;2022-08-03T06:43:49;27.50;99.90
55436;DHT22;41307;53.142;6.430;2022-08-03T06:46:15;27.50;99.90
55436;DHT22;41307;53.142;6.430;2022-08-03T06:48:41;27.90;99.90
55436;DHT22;41307;53.142;6.430;2022-08-03T06:51:07;28.00;99.90
55436;DHT22;41307;53.142;6.430;2022-08-03T06:53:33;28.00;99.90
55436;DHT22;41307;53.142;6.430;2022-08-03T06:55:58;28.40;99.90
55436;DHT22;41307;53.142;6.430;2022-08-03T06:58:24;28.80;99.90
55436;DHT22;41307;53.142;6.430;2022-08-03T07:00:50;28.10;99.90
55436;DHT22;41307;53.142;6.430;2022-08-03T07:03:16;27.40;99.90
55436;DHT22;41307;53.142;6.430;2022-08-03T07:05:42;26.60;99.90
55436;DHT22;41307;53.142;6.430;2022-08-03T07:08:11;25.50;99.90
55436;DHT22;41307;53.142;6.430;2022-08-03T07:10:36;25.20;99.90
55436;DHT22;41307;53.142;6.430;2022-08-03T07:13:03;24.90;99.90
55436;DHT22;41307;53.142;6.430;2022-08-03T07:15:28;24.50;99.90
55436;DHT22;41307;53.142;6.430;2022-08-03T07:17:55;24.20;99.90
55436;DHT22;41307;53.142;6.430;2022-08-03T07:20:21;24.10;99.90
55436;DHT22;41307;53.142;6.430;2022-08-03T07:22:47;23.90;99.90
55436;DHT22;41307;53.142;6.430;2022-08-03T07:25:13;23.70;99.90
55436;DHT22;41307;53.142;6.430;2022-08-03T07:27:43;23.70;99.90
55436;DHT22;41307;53.142;6.430;2022-08-03T07:30:09;23.60;99.90
55436;DHT22;41307;53.142;6.430;2022-08-03T07:32:35;23.60;99.90
55436;DHT22;41307;53.142;6.430;2022-08-03T07:35:03;23.70;99.90
55436;DHT22;41307;53.142;6.430;2022-08-03T07:37:29;24.10;99.90
55436;DHT22;41307;53.142;6.430;2022-08-03T07:39:55;24.50;99.90
55436;DHT22;41307;53.142;6.430;2022-08-03T07:42:21;24.90;99.90
55436;DHT22;41307;53.142;6.430;2022-08-03T07:44:48;25.80;99.90
55436;DHT22;41307;53.142;6.430;2022-08-03T07:47:18;26.30;99.90
55436;DHT22;41307;53.142;6.430;2022-08-03T07:49:44;26.80;99.90
55436;DHT22;41307;53.142;6.430;2022-08-03T07:52:10;27.70;99.90
55436;DHT22;41307;53.142;6.430;2022-08-03T07:54:54;28.20;99.90
55436;DHT22;41307;53.142;6.430;2022-08-03T07:57:20;28.20;99.90
55436;DHT22;41307;53.142;6.430;2022-08-03T07:59:46;28.70;99.90
55436;DHT22;41307;53.142;6.430;2022-08-03T08:02:12;29.10;99.90
55436;DHT22;41307;53.142;6.430;2022-08-03T08:04:39;29.40;99.90
55436;DHT22;41307;53.142;6.430;2022-08-03T08:07:05;29.60;99.90
55436;DHT22;41307;53.142;6.430;2022-08-03T08:09:30;30.00;99.90
55436;DHT22;41307;53.142;6.430;2022-08-03T08:11:56;30.50;99.90
55436;DHT22;41307;53.142;6.430;2022-08-03T08:14:22;30.90;99.90
55436;DHT22;41307;53.142;6.430;2022-08-03T08:16:47;30.40;99.90
55436;DHT22;41307;53.142;6.430;2022-08-03T08:19:14;30.50;99.90
55436;DHT22;41307;53.142;6.430;2022-08-03T08:21:42;31.00;99.80
55436;DHT22;41307;53.142;6.430;2022-08-03T08:24:08;31.40;98.10
55436;DHT22;41307;53.142;6.430;2022-08-03T08:26:34;31.80;97.10
55436;DHT22;41307;53.142;6.430;2022-08-03T08:28:59;32.00;95.90
55436;DHT22;41307;53.142;6.430;2022-08-03T08:31:27;32.20;94.70
55436;DHT22;41307;53.142;6.430;2022-08-03T08:33:53;32.40;94.40
55436;DHT22;41307;53.142;6.430;2022-08-03T08:36:19;32.30;93.50
55436;DHT22;41307;53.142;6.430;2022-08-03T08:38:45;32.30;92.70
55436;DHT22;41307;53.142;6.430;2022-08-03T08:41:12;32.30;91.90
55436;DHT22;41307;53.142;6.430;2022-08-03T08:43:47;31.70;92.00
55436;DHT22;41307;53.142;6.430;2022-08-03T08:46:13;31.70;90.80
55436;DHT22;41307;53.142;6.430;2022-08-03T08:48:41;31.30;92.90
55436;DHT22;41307;53.142;6.430;2022-08-03T08:51:10;31.00;93.10
55436;DHT22;41307;53.142;6.430;2022-08-03T08:53:36;30.70;93.90
55436;DHT22;41307;53.142;6.430;2022-08-03T08:56:07;30.50;94.50
55436;DHT22;41307;53.142;6.430;2022-08-03T08:58:37;30.60;94.60
55436;DHT22;41307;53.142;6.430;2022-08-03T09:01:05;30.40;95.00
55436;DHT22;41307;53.142;6.430;2022-08-03T09:03:35;30.20;95.80
55436;DHT22;41307;53.142;6.430;2022-08-03T09:06:01;30.40;95.80
55436;DHT22;41307;53.142;6.430;2022-08-03T09:08:28;30.00;96.80
55436;DHT22;41307;53.142;6.430;2022-08-03T09:10:54;30.30;97.40
55436;DHT22;41307;53.142;6.430;2022-08-03T09:13:20;30.50;96.90
55436;DHT22;41307;53.142;6.430;2022-08-03T09:15:45;30.90;96.60
55436;DHT22;41307;53.142;6.430;2022-08-03T09:18:11;31.10;96.20
55436;DHT22;41307;53.142;6.430;2022-08-03T09:20:39;31.30;95.60
55436;DHT22;41307;53.142;6.430;2022-08-03T09:23:07;31.50;95.10
55436;DHT22;41307;53.142;6.430;2022-08-03T09:25:36;31.60;94.50
55436;DHT22;41307;53.142;6.430;2022-08-03T09:28:12;31.80;94.60
55436;DHT22;41307;53.142;6.430;2022-08-03T09:30:39;31.70;93.50
55436;DHT22;41307;53.142;6.430;2022-08-03T09:33:08;31.90;93.60
55436;DHT22;41307;53.142;6.430;2022-08-03T09:35:43;32.10;93.80
55436;DHT22;41307;53.142;6.430;2022-08-03T09:38:13;32.20;91.90
55436;DHT22;41307;53.142;6.430;2022-08-03T09:40:40;32.20;92.90
55436;DHT22;41307;53.142;6.430;2022-08-03T09:43:06;32.30;93.00
55436;DHT22;41307;53.142;6.430;2022-08-03T09:45:34;32.40;92.40
55436;DHT22;41307;53.142;6.430;2022-08-03T09:48:33;32.40;92.80
55436;DHT22;41307;53.142;6.430;2022-08-03T09:51:03;32.10;91.30
55436;DHT22;41307;53.142;6.430;2022-08-03T09:53:29;31.90;91.70
55436;DHT22;41307;53.142;6.430;2022-08-03T09:55:59;32.00;92.50
55436;DHT22;41307;53.142;6.430;2022-08-03T09:58:29;31.80;92.10
55436;DHT22;41307;53.142;6.430;2022-08-03T10:01:03;31.90;92.20
55436;DHT22;41307;53.142;6.430;2022-08-03T10:03:33;31.80;91.40
55436;DHT22;41307;53.142;6.430;2022-08-03T10:06:22;31.40;92.30
55436;DHT22;41307;53.142;6.430;2022-08-03T10:09:05;31.40;91.80
55436;DHT22;41307;53.142;6.430;2022-08-03T10:11:32;31.50;92.60
55436;DHT22;41307;53.142;6.430;2022-08-03T10:14:04;31.30;93.00
55436;DHT22;41307;53.142;6.430;2022-08-03T10:16:39;31.30;92.60
55436;DHT22;41307;53.142;6.430;2022-08-03T10:19:07;31.60;91.90
55436;DHT22;41307;53.142;6.430;2022-08-03T10:21:35;31.50;92.30
55436;DHT22;41307;53.142;6.430;2022-08-03T10:24:05;31.90;92.10
55436;DHT22;41307;53.142;6.430;2022-08-03T10:26:37;32.10;92.00
55436;DHT22;41307;53.142;6.430;2022-08-03T10:29:05;32.40;91.80
55436;DHT22;41307;53.142;6.430;2022-08-03T10:31:38;32.20;91.50
55436;DHT22;41307;53.142;6.430;2022-08-03T10:34:24;32.20;90.40
55436;DHT22;41307;53.142;6.430;2022-08-03T10:36:52;32.30;90.20
55436;DHT22;41307;53.142;6.430;2022-08-03T10:39:22;32.20;90.30
55436;DHT22;41307;53.142;6.430;2022-08-03T10:41:49;32.00;90.60
55436;DHT22;41307;53.142;6.430;2022-08-03T10:44:20;32.00;90.60
55436;DHT22;41307;53.142;6.430;2022-08-03T10:46:47;32.10;90.10
55436;DHT22;41307;53.142;6.430;2022-08-03T10:49:18;32.00;90.00
55436;DHT22;41307;53.142;6.430;2022-08-03T10:51:46;32.10;88.90
55436;DHT22;41307;53.142;6.430;2022-08-03T10:54:37;32.00;88.80
55436;DHT22;41307;53.142;6.430;2022-08-03T11:00:11;32.10;88.50
55436;DHT22;41307;53.142;6.430;2022-08-03T11:05:30;31.60;88.80
55436;DHT22;41307;53.142;6.430;2022-08-03T11:08:28;31.90;89.80
55436;DHT22;41307;53.142;6.430;2022-08-03T11:10:57;32.30;89.10
55436;DHT22;41307;53.142;6.430;2022-08-03T11:13:24;32.40;87.20
55436;DHT22;41307;53.142;6.430;2022-08-03T11:15:53;32.50;86.60
55436;DHT22;41307;53.142;6.430;2022-08-03T11:18:19;32.50;86.90
55436;DHT22;41307;53.142;6.430;2022-08-03T11:23:18;32.50;86.20
55436;DHT22;41307;53.142;6.430;2022-08-03T11:26:07;32.50;86.50
55436;DHT22;41307;53.142;6.430;2022-08-03T11:28:32;32.30;85.10
55436;DHT22;41307;53.142;6.430;2022-08-03T11:34:07;32.10;85.60
55436;DHT22;41307;53.142;6.430;2022-08-03T11:39:42;31.50;87.70
55436;DHT22;41307;53.142;6.430;2022-08-03T11:44:55;31.60;88.50
55436;DHT22;41307;53.142;6.430;2022-08-03T11:47:23;31.50;88.00
55436;DHT22;41307;53.142;6.430;2022-08-03T11:49:54;31.40;88.00
55436;DHT22;41307;53.142;6.430;2022-08-03T11:52:22;31.50;88.70
55436;DHT22;41307;53.142;6.430;2022-08-03T11:54:52;31.50;89.00
55436;DHT22;41307;53.142;6.430;2022-08-03T11:57:28;31.40;89.50
55436;DHT22;41307;53.142;6.430;2022-08-03T11:59:54;31.10;88.80
55436;DHT22;41307;53.142;6.430;2022-08-03T12:02:20;31.10;89.00
55436;DHT22;41307;53.142;6.430;2022-08-03T12:04:56;31.10;89.20
55436;DHT22;41307;53.142;6.430;2022-08-03T12:07:27;31.30;90.20
55436;DHT22;41307;53.142;6.430;2022-08-03T12:10:10;31.40;90.50
55436;DHT22;41307;53.142;6.430;2022-08-03T12:12:37;31.30;90.30
55436;DHT22;41307;53.142;6.430;2022-08-03T12:15:04;31.10;90.00
55436;DHT22;41307;53.142;6.430;2022-08-03T12:17:36;31.20;89.60
55436;DHT22;41307;53.142;6.430;2022-08-03T12:20:05;31.30;90.40
55436;DHT22;41307;53.142;6.430;2022-08-03T12:22:38;31.20;90.30
55436;DHT22;41307;53.142;6.430;2022-08-03T12:25:06;31.30;90.40
55436;DHT22;41307;53.142;6.430;2022-08-03T12:27:32;31.20;90.70
55436;DHT22;41307;53.142;6.430;2022-08-03T12:29:58;31.20;90.70
55436;DHT22;41307;53.142;6.430;2022-08-03T12:32:29;31.10;90.60
55436;DHT22;41307;53.142;6.430;2022-08-03T12:34:56;31.00;90.90
55436;DHT22;41307;53.142;6.430;2022-08-03T12:37:25;30.60;91.30
55436;DHT22;41307;53.142;6.430;2022-08-03T12:39:52;30.70;91.40
55436;DHT22;41307;53.142;6.430;2022-08-03T12:42:18;30.70;91.80
55436;DHT22;41307;53.142;6.430;2022-08-03T12:44:44;30.80;91.80
55436;DHT22;41307;53.142;6.430;2022-08-03T12:47:11;30.90;91.80
55436;DHT22;41307;53.142;6.430;2022-08-03T12:49:53;30.70;91.40
55436;DHT22;41307;53.142;6.430;2022-08-03T12:52:21;30.80;90.40
55436;DHT22;41307;53.142;6.430;2022-08-03T12:54:58;30.50;90.50
55436;DHT22;41307;53.142;6.430;2022-08-03T12:57:25;30.40;90.60
55436;DHT22;41307;53.142;6.430;2022-08-03T12:59:51;30.40;91.10
55436;DHT22;41307;53.142;6.430;2022-08-03T13:02:26;30.40;91.00
55436;DHT22;41307;53.142;6.430;2022-08-03T13:04:56;30.30;90.20
55436;DHT22;41307;53.142;6.430;2022-08-03T13:07:21;30.30;90.50
55436;DHT22;41307;53.142;6.430;2022-08-03T13:09:52;30.30;90.70
55436;DHT22;41307;53.142;6.430;2022-08-03T13:12:23;30.30;90.50
55436;DHT22;41307;53.142;6.430;2022-08-03T13:14:52;30.30;90.40
55436;DHT22;41307;53.142;6.430;2022-08-03T13:17:19;30.40;90.40
55436;DHT22;41307;53.142;6.430;2022-08-03T13:19:45;30.30;89.00
55436;DHT22;41307;53.142;6.430;2022-08-03T13:22:16;30.30;88.40
55436;DHT22;41307;53.142;6.430;2022-08-03T13:24:45;30.30;88.80
55436;DHT22;41307;53.142;6.430;2022-08-03T13:27:11;30.20;87.40
55436;DHT22;41307;53.142;6.430;2022-08-03T13:29:37;30.20;88.60
55436;DHT22;41307;53.142;6.430;2022-08-03T13:32:04;30.20;88.30
55436;DHT22;41307;53.142;6.430;2022-08-03T13:34:31;30.10;86.70
55436;DHT22;41307;53.142;6.430;2022-08-03T13:36:57;30.00;87.80
55436;DHT22;41307;53.142;6.430;2022-08-03T13:39:23;30.10;87.90
55436;DHT22;41307;53.142;6.430;2022-08-03T13:41:49;30.10;87.60
55436;DHT22;41307;53.142;6.430;2022-08-03T13:44:15;30.10;88.60
55436;DHT22;41307;53.142;6.430;2022-08-03T13:46:41;29.80;88.00
55436;DHT22;41307;53.142;6.430;2022-08-03T13:49:07;29.90;88.30
55436;DHT22;41307;53.142;6.430;2022-08-03T13:51:32;30.00;88.10
55436;DHT22;41307;53.142;6.430;2022-08-03T13:53:58;30.10;88.20
55436;DHT22;41307;53.142;6.430;2022-08-03T13:56:28;30.00;87.10
55436;DHT22;41307;53.142;6.430;2022-08-03T13:58:54;30.10;87.70
55436;DHT22;41307;53.142;6.430;2022-08-03T14:01:21;30.10;88.00
55436;DHT22;41307;53.142;6.430;2022-08-03T14:03:46;30.10;88.20
55436;DHT22;41307;53.142;6.430;2022-08-03T14:06:14;30.10;87.70
55436;DHT22;41307;53.142;6.430;2022-08-03T14:08:40;30.20;88.30
55436;DHT22;41307;53.142;6.430;2022-08-03T14:11:06;30.30;88.20
55436;DHT22;41307;53.142;6.430;2022-08-03T14:13:32;30.30;87.00
55436;DHT22;41307;53.142;6.430;2022-08-03T14:15:57;30.40;86.90
55436;DHT22;41307;53.142;6.430;2022-08-03T14:18:23;30.30;86.80
55436;DHT22;41307;53.142;6.430;2022-08-03T14:20:49;30.30;87.10
55436;DHT22;41307;53.142;6.430;2022-08-03T14:23:15;30.20;86.20
55436;DHT22;41307;53.142;6.430;2022-08-03T14:25:42;30.00;86.00
55436;DHT22;41307;53.142;6.430;2022-08-03T14:28:08;29.80;86.40
55436;DHT22;41307;53.142;6.430;2022-08-03T14:30:34;29.80;86.90
55436;DHT22;41307;53.142;6.430;2022-08-03T14:33:00;29.70;85.30
55436;DHT22;41307;53.142;6.430;2022-08-03T14:35:26;29.70;84.30
55436;DHT22;41307;53.142;6.430;2022-08-03T14:37:52;29.60;83.50
55436;DHT22;41307;53.142;6.430;2022-08-03T14:40:18;29.50;83.20
55436;DHT22;41307;53.142;6.430;2022-08-03T14:42:44;29.60;83.50
55436;DHT22;41307;53.142;6.430;2022-08-03T14:45:10;29.70;83.90
55436;DHT22;41307;53.142;6.430;2022-08-03T14:47:38;29.60;82.90
55436;DHT22;41307;53.142;6.430;2022-08-03T14:50:05;29.60;82.60
55436;DHT22;41307;53.142;6.430;2022-08-03T14:52:31;29.60;82.00
55436;DHT22;41307;53.142;6.430;2022-08-03T14:54:58;29.50;82.00
55436;DHT22;41307;53.142;6.430;2022-08-03T14:57:24;29.50;82.00
55436;DHT22;41307;53.142;6.430;2022-08-03T14:59:50;29.40;81.00
55436;DHT22;41307;53.142;6.430;2022-08-03T15:02:15;29.40;81.40
55436;DHT22;41307;53.142;6.430;2022-08-03T15:04:41;29.50;81.60
55436;DHT22;41307;53.142;6.430;2022-08-03T15:07:07;29.40;80.80
55436;DHT22;41307;53.142;6.430;2022-08-03T15:09:33;29.40;81.60
55436;DHT22;41307;53.142;6.430;2022-08-03T15:11:59;29.30;80.40
55436;DHT22;41307;53.142;6.430;2022-08-03T15:14:25;29.30;80.70
55436;DHT22;41307;53.142;6.430;2022-08-03T15:16:51;29.20;81.10
55436;DHT22;41307;53.142;6.430;2022-08-03T15:19:17;29.20;81.40
55436;DHT22;41307;53.142;6.430;2022-08-03T15:21:43;29.30;81.90
55436;DHT22;41307;53.142;6.430;2022-08-03T15:24:08;29.40;81.90
55436;DHT22;41307;53.142;6.430;2022-08-03T15:26:34;29.40;80.70
55436;DHT22;41307;53.142;6.430;2022-08-03T15:29:00;29.40;80.10
55436;DHT22;41307;53.142;6.430;2022-08-03T15:31:26;29.30;79.50
55436;DHT22;41307;53.142;6.430;2022-08-03T15:33:52;29.30;80.00
55436;DHT22;41307;53.142;6.430;2022-08-03T15:36:18;29.30;80.50
55436;DHT22;41307;53.142;6.430;2022-08-03T15:38:45;29.20;80.30
55436;DHT22;41307;53.142;6.430;2022-08-03T15:41:14;29.20;80.00
55436;DHT22;41307;53.142;6.430;2022-08-03T15:43:40;29.10;78.80
55436;DHT22;41307;53.142;6.430;2022-08-03T15:46:06;29.10;78.90
55436;DHT22;41307;53.142;6.430;2022-08-03T15:48:32;29.00;78.80
55436;DHT22;41307;53.142;6.430;2022-08-03T15:50:58;28.90;79.10
55436;DHT22;41307;53.142;6.430;2022-08-03T15:53:24;28.90;78.70
55436;DHT22;41307;53.142;6.430;2022-08-03T15:55:50;28.90;79.10
55436;DHT22;41307;53.142;6.430;2022-08-03T15:58:15;28.90;78.00
55436;DHT22;41307;53.142;6.430;2022-08-03T16:00:42;28.80;77.10
55436;DHT22;41307;53.142;6.430;2022-08-03T16:03:08;28.70;77.30